sensor_id;sensor_type;location;lat;lon;timestamp;P1;P2;P0
73973;PMS5003;62336;-26.094;27.994;2024-01-15T00:01:42;17;15;
73973;PMS5003;62336;-26.094;27.994;2024-01-15T00:04:07;19;18;
73973;PMS5003;62336;-26.094;27.994;2024-01-15T00:06:32;22;20;
73973;PMS5003;62336;-26.094;27.994;2024-01-15T00:08:58;18;16;
73973;PMS5003;62336;-26.094;27.994;2024-01-15T00:11:23;21;20;
73973;PMS5003;62336;-26.094;27.994;2024-01-15T00:13:48;19;18;
73973;PMS5003;62336;-26.094;27.994;2024-01-15T00:16:13;20;18;
73973;PMS5003;62336;-26.094;27.994;2024-01-15T00:18:39;16;16;
73973;PMS5003;62336;-26.094;27.994;2024-01-15T00:21:04;22;21;
73973;PMS5003;62336;-26.094;27.994;2024-01-15T00:23:30;16;16;
73973;PMS5003;62336;-26.094;27.994;2024-01-15T00:25:56;22;21;
73973;PMS5003;62336;-26.094;27.994;2024-01-15T00:28:21;20;19;
73973;PMS5003;62336;-26.094;27.994;2024-01-15T00:30:46;21;19;
73973;PMS5003;62336;-26.094;27.994;2024-01-15T00:33:12;24;23;
73973;PMS5003;62336;-26.094;27.994;2024-01-15T00:35:37;19;16;
73973;PMS5003;62336;-26.094;27.994;2024-01-15T00:38:03;17;15;
73973;PMS5003;62336;-26.094;27.994;2024-01-15T00:40:28;21;20;
73973;PMS5003;62336;-26.094;27.994;2024-01-15T00:42:54;23;20;
73973;PMS5003;62336;-26.094;27.994;2024-01-15T00:45:19;15;15;
73973;PMS5003;62336;-26.094;27.994;2024-01-15T00:47:44;16;15;
73973;PMS5003;62336;-26.094;27.994;2024-01-15T00:50:10;20;20;
73973;PMS5003;62336;-26.094;27.994;2024-01-15T00:52:35;21;21;
73973;PMS5003;62336;-26.094;27.994;2024-01-15T00:55:01;18;18;
73973;PMS5003;62336;-26.094;27.994;2024-01-15T00:57:26;19;18;
73973;PMS5003;62336;-26.094;27.994;2024-01-15T00:59:51;14;14;
73973;PMS5003;62336;-26.094;27.994;2024-01-15T01:02:17;15;14;
73973;PMS5003;62336;-26.094;27.994;2024-01-15T01:04:42;14;14;
73973;PMS5003;62336;-26.094;27.994;2024-01-15T01:07:08;25;22;
73973;PMS5003;62336;-26.094;27.994;2024-01-15T01:09:34;22;19;
73973;PMS5003;62336;-26.094;27.994;2024-01-15T01:11:59;17;14;
73973;PMS5003;62336;-26.094;27.994;2024-01-15T01:14:24;16;16;
73973;PMS5003;62336;-26.094;27.994;2024-01-15T01:16:50;20;18;
73973;PMS5003;62336;-26.094;27.994;2024-01-15T01:19:15;19;16;
73973;PMS5003;62336;-26.094;27.994;2024-01-15T01:21:40;14;14;
73973;PMS5003;62336;-26.094;27.994;2024-01-15T01:24:06;15;14;
73973;PMS5003;62336;-26.094;27.994;2024-01-15T01:26:31;15;15;
73973;PMS5003;62336;-26.094;27.994;2024-01-15T01:28:56;16;16;
73973;PMS5003;62336;-26.094;27.994;2024-01-15T01:31:22;17;15;
73973;PMS5003;62336;-26.094;27.994;2024-01-15T01:33:47;19;16;
73973;PMS5003;62336;-26.094;27.994;2024-01-15T01:36:13;20;19;
73973;PMS5003;62336;-26.094;27.994;2024-01-15T01:38:39;14;13;
73973;PMS5003;62336;-26.094;27.994;2024-01-15T01:41:04;17;16;
73973;PMS5003;62336;-26.094;27.994;2024-01-15T01:43:29;19;19;
73973;PMS5003;62336;-26.094;27.994;2024-01-15T01:45:55;16;15;
73973;PMS5003;62336;-26.094;27.994;2024-01-15T01:48:20;21;19;
73973;PMS5003;62336;-26.094;27.994;2024-01-15T01:50:46;18;17;
73973;PMS5003;62336;-26.094;27.994;2024-01-15T01:53:11;22;19;
73973;PMS5003;62336;-26.094;27.994;2024-01-15T01:55:36;13;13;
73973;PMS5003;62336;-26.094;27.994;2024-01-15T01:58:02;19;18;
73973;PMS5003;62336;-26.094;27.994;2024-01-15T02:00:27;15;13;
73973;PMS5003;62336;-26.094;27.994;2024-01-15T02:02:53;14;14;
73973;PMS5003;62336;-26.094;27.994;2024-01-15T02:05:19;18;16;
73973;PMS5003;62336;-26.094;27.994;2024-01-15T02:07:45;14;14;
73973;PMS5003;62336;-26.094;27.994;2024-01-15T02:10:10;17;16;
73973;PMS5003;62336;-26.094;27.994;2024-01-15T02:12:36;16;16;
73973;PMS5003;62336;-26.094;27.994;2024-01-15T02:15:02;19;19;
73973;PMS5003;62336;-26.094;27.994;2024-01-15T02:17:27;18;17;
73973;PMS5003;62336;-26.094;27.994;2024-01-15T02:19:53;22;20;
73973;PMS5003;62336;-26.094;27.994;2024-01-15T02:22:19;16;16;
73973;PMS5003;62336;-26.094;27.994;2024-01-15T02:24:44;14;13;
73973;PMS5003;62336;-26.094;27.994;2024-01-15T02:27:11;17;15;
73973;PMS5003;62336;-26.094;27.994;2024-01-15T02:29:36;12;12;
73973;PMS5003;62336;-26.094;27.994;2024-01-15T02:32:04;17;16;
73973;PMS5003;62336;-26.094;27.994;2024-01-15T02:34:27;19;17;
73973;PMS5003;62336;-26.094;27.994;2024-01-15T02:36:53;14;14;
73973;PMS5003;62336;-26.094;27.994;2024-01-15T02:39:18;16;15;
73973;PMS5003;62336;-26.094;27.994;2024-01-15T02:41:43;17;15;
73973;PMS5003;62336;-26.094;27.994;2024-01-15T02:44:10;12;11;
73973;PMS5003;62336;-26.094;27.994;2024-01-15T02:46:35;15;14;
73973;PMS5003;62336;-26.094;27.994;2024-01-15T02:49:00;20;18;
73973;PMS5003;62336;-26.094;27.994;2024-01-15T02:51:26;16;15;
73973;PMS5003;62336;-26.094;27.994;2024-01-15T02:53:51;22;20;
73973;PMS5003;62336;-26.094;27.994;2024-01-15T02:56:16;21;19;
73973;PMS5003;62336;-26.094;27.994;2024-01-15T02:58:41;23;21;
73973;PMS5003;62336;-26.094;27.994;2024-01-15T03:01:07;20;16;
73973;PMS5003;62336;-26.094;27.994;2024-01-15T03:03:32;17;16;
73973;PMS5003;62336;-26.094;27.994;2024-01-15T03:05:57;18;17;
73973;PMS5003;62336;-26.094;27.994;2024-01-15T03:08:22;18;17;
73973;PMS5003;62336;-26.094;27.994;2024-01-15T03:10:48;15;15;
73973;PMS5003;62336;-26.094;27.994;2024-01-15T03:13:13;17;16;
73973;PMS5003;62336;-26.094;27.994;2024-01-15T03:15:39;13;13;
73973;PMS5003;62336;-26.094;27.994;2024-01-15T03:18:05;16;15;
73973;PMS5003;62336;-26.094;27.994;2024-01-15T03:20:30;14;14;
73973;PMS5003;62336;-26.094;27.994;2024-01-15T03:22:56;16;14;
73973;PMS5003;62336;-26.094;27.994;2024-01-15T03:25:22;17;16;
73973;PMS5003;62336;-26.094;27.994;2024-01-15T03:27:48;16;15;
73973;PMS5003;62336;-26.094;27.994;2024-01-15T03:30:13;17;15;
73973;PMS5003;62336;-26.094;27.994;2024-01-15T03:32:39;20;19;
73973;PMS5003;62336;-26.094;27.994;2024-01-15T03:35:04;18;15;
73973;PMS5003;62336;-26.094;27.994;2024-01-15T03:37:30;17;15;
73973;PMS5003;62336;-26.094;27.994;2024-01-15T03:39:56;22;21;
73973;PMS5003;62336;-26.094;27.994;2024-01-15T03:42:21;15;13;
73973;PMS5003;62336;-26.094;27.994;2024-01-15T03:44:47;19;17;
73973;PMS5003;62336;-26.094;27.994;2024-01-15T03:47:12;20;17;
73973;PMS5003;62336;-26.094;27.994;2024-01-15T03:49:38;24;23;
73973;PMS5003;62336;-26.094;27.994;2024-01-15T03:52:04;18;17;
73973;PMS5003;62336;-26.094;27.994;2024-01-15T03:54:29;15;15;
73973;PMS5003;62336;-26.094;27.994;2024-01-15T03:56:54;16;16;
73973;PMS5003;62336;-26.094;27.994;2024-01-15T03:59:20;20;16;
73973;PMS5003;62336;-26.094;27.994;2024-01-15T04:01:48;17;15;
73973;PMS5003;62336;-26.094;27.994;2024-01-15T04:04:11;14;13;
73973;PMS5003;62336;-26.094;27.994;2024-01-15T04:06:36;13;13;
73973;PMS5003;62336;-26.094;27.994;2024-01-15T04:09:01;15;14;
73973;PMS5003;62336;-26.094;27.994;2024-01-15T04:11:27;16;12;
73973;PMS5003;62336;-26.094;27.994;2024-01-15T04:13:52;20;17;
73973;PMS5003;62336;-26.094;27.994;2024-01-15T04:16:17;18;15;
73973;PMS5003;62336;-26.094;27.994;2024-01-15T04:18:43;18;18;
73973;PMS5003;62336;-26.094;27.994;2024-01-15T04:21:08;24;23;
73973;PMS5003;62336;-26.094;27.994;2024-01-15T04:23:34;20;20;
73973;PMS5003;62336;-26.094;27.994;2024-01-15T04:25:59;25;20;
73973;PMS5003;62336;-26.094;27.994;2024-01-15T04:28:25;26;25;
73973;PMS5003;62336;-26.094;27.994;2024-01-15T04:30:50;25;23;
73973;PMS5003;62336;-26.094;27.994;2024-01-15T04:33:15;22;20;
73973;PMS5003;62336;-26.094;27.994;2024-01-15T04:35:40;20;19;
73973;PMS5003;62336;-26.094;27.994;2024-01-15T04:38:06;21;20;
73973;PMS5003;62336;-26.094;27.994;2024-01-15T04:40:32;25;21;
73973;PMS5003;62336;-26.094;27.994;2024-01-15T04:42:57;25;22;
73973;PMS5003;62336;-26.094;27.994;2024-01-15T04:45:23;28;26;
73973;PMS5003;62336;-26.094;27.994;2024-01-15T04:47:48;22;21;
73973;PMS5003;62336;-26.094;27.994;2024-01-15T04:50:13;25;25;
73973;PMS5003;62336;-26.094;27.994;2024-01-15T04:52:39;25;23;
73973;PMS5003;62336;-26.094;27.994;2024-01-15T04:55:04;27;25;
73973;PMS5003;62336;-26.094;27.994;2024-01-15T04:57:29;27;24;
73973;PMS5003;62336;-26.094;27.994;2024-01-15T04:59:55;26;23;
73973;PMS5003;62336;-26.094;27.994;2024-01-15T05:02:21;26;22;
73973;PMS5003;62336;-26.094;27.994;2024-01-15T05:04:46;25;22;
73973;PMS5003;62336;-26.094;27.994;2024-01-15T05:07:11;29;26;
73973;PMS5003;62336;-26.094;27.994;2024-01-15T05:09:37;23;22;
73973;PMS5003;62336;-26.094;27.994;2024-01-15T05:12:03;25;24;
73973;PMS5003;62336;-26.094;27.994;2024-01-15T05:14:28;24;22;
73973;PMS5003;62336;-26.094;27.994;2024-01-15T05:16:53;23;21;
73973;PMS5003;62336;-26.094;27.994;2024-01-15T05:19:18;28;27;
73973;PMS5003;62336;-26.094;27.994;2024-01-15T05:21:44;28;26;
73973;PMS5003;62336;-26.094;27.994;2024-01-15T05:24:10;24;23;
73973;PMS5003;62336;-26.094;27.994;2024-01-15T05:26:35;26;21;
73973;PMS5003;62336;-26.094;27.994;2024-01-15T05:29:01;22;20;
73973;PMS5003;62336;-26.094;27.994;2024-01-15T05:31:27;20;19;
73973;PMS5003;62336;-26.094;27.994;2024-01-15T05:33:52;25;24;
73973;PMS5003;62336;-26.094;27.994;2024-01-15T05:36:17;27;25;
73973;PMS5003;62336;-26.094;27.994;2024-01-15T05:38:43;22;20;
73973;PMS5003;62336;-26.094;27.994;2024-01-15T05:41:10;21;20;
73973;PMS5003;62336;-26.094;27.994;2024-01-15T05:43:34;21;20;
73973;PMS5003;62336;-26.094;27.994;2024-01-15T05:46:00;25;24;
73973;PMS5003;62336;-26.094;27.994;2024-01-15T05:48:25;18;17;
73973;PMS5003;62336;-26.094;27.994;2024-01-15T05:50:50;29;26;
73973;PMS5003;62336;-26.094;27.994;2024-01-15T05:53:17;18;18;
73973;PMS5003;62336;-26.094;27.994;2024-01-15T05:55:42;20;20;
73973;PMS5003;62336;-26.094;27.994;2024-01-15T05:58:07;21;19;
73973;PMS5003;62336;-26.094;27.994;2024-01-15T06:00:33;25;23;
73973;PMS5003;62336;-26.094;27.994;2024-01-15T06:02:58;22;21;
73973;PMS5003;62336;-26.094;27.994;2024-01-15T06:05:24;29;26;
73973;PMS5003;62336;-26.094;27.994;2024-01-15T06:07:49;28;27;
73973;PMS5003;62336;-26.094;27.994;2024-01-15T06:10:14;19;19;
73973;PMS5003;62336;-26.094;27.994;2024-01-15T06:12:40;25;24;
73973;PMS5003;62336;-26.094;27.994;2024-01-15T06:15:05;25;25;
73973;PMS5003;62336;-26.094;27.994;2024-01-15T06:17:31;31;29;
73973;PMS5003;62336;-26.094;27.994;2024-01-15T06:19:56;25;25;
73973;PMS5003;62336;-26.094;27.994;2024-01-15T06:22:21;30;29;
73973;PMS5003;62336;-26.094;27.994;2024-01-15T06:24:47;28;27;
73973;PMS5003;62336;-26.094;27.994;2024-01-15T06:27:12;26;26;
73973;PMS5003;62336;-26.094;27.994;2024-01-15T06:29:38;26;24;
73973;PMS5003;62336;-26.094;27.994;2024-01-15T06:32:09;26;25;
73973;PMS5003;62336;-26.094;27.994;2024-01-15T06:34:29;31;30;
73973;PMS5003;62336;-26.094;27.994;2024-01-15T06:36:54;33;30;
73973;PMS5003;62336;-26.094;27.994;2024-01-15T06:39:19;30;28;
73973;PMS5003;62336;-26.094;27.994;2024-01-15T06:41:45;25;24;
73973;PMS5003;62336;-26.094;27.994;2024-01-15T06:44:10;29;26;
73973;PMS5003;62336;-26.094;27.994;2024-01-15T06:46:36;22;21;
73973;PMS5003;62336;-26.094;27.994;2024-01-15T06:49:07;25;24;
73973;PMS5003;62336;-26.094;27.994;2024-01-15T06:51:26;29;27;
73973;PMS5003;62336;-26.094;27.994;2024-01-15T06:53:52;27;27;
73973;PMS5003;62336;-26.094;27.994;2024-01-15T06:56:18;32;30;
73973;PMS5003;62336;-26.094;27.994;2024-01-15T06:58:44;22;21;
73973;PMS5003;62336;-26.094;27.994;2024-01-15T07:01:10;22;21;
73973;PMS5003;62336;-26.094;27.994;2024-01-15T07:03:35;25;24;
73973;PMS5003;62336;-26.094;27.994;2024-01-15T07:06:01;29;28;
73973;PMS5003;62336;-26.094;27.994;2024-01-15T07:08:26;25;24;
73973;PMS5003;62336;-26.094;27.994;2024-01-15T07:10:51;28;27;
73973;PMS5003;62336;-26.094;27.994;2024-01-15T07:13:17;27;25;
73973;PMS5003;62336;-26.094;27.994;2024-01-15T07:15:42;24;24;
73973;PMS5003;62336;-26.094;27.994;2024-01-15T07:18:09;29;25;
73973;PMS5003;62336;-26.094;27.994;2024-01-15T07:20:32;22;21;
73973;PMS5003;62336;-26.094;27.994;2024-01-15T07:22:58;26;25;
73973;PMS5003;62336;-26.094;27.994;2024-01-15T07:25:23;32;30;
73973;PMS5003;62336;-26.094;27.994;2024-01-15T07:27:48;25;24;
73973;PMS5003;62336;-26.094;27.994;2024-01-15T07:30:14;29;28;
73973;PMS5003;62336;-26.094;27.994;2024-01-15T07:32:39;26;26;
73973;PMS5003;62336;-26.094;27.994;2024-01-15T07:35:05;24;23;
73973;PMS5003;62336;-26.094;27.994;2024-01-15T07:37:30;25;23;
73973;PMS5003;62336;-26.094;27.994;2024-01-15T07:39:56;30;23;
73973;PMS5003;62336;-26.094;27.994;2024-01-15T07:42:22;33;32;
73973;PMS5003;62336;-26.094;27.994;2024-01-15T07:44:46;24;23;
73973;PMS5003;62336;-26.094;27.994;2024-01-15T07:47:12;33;31;
73973;PMS5003;62336;-26.094;27.994;2024-01-15T07:49:38;24;23;
73973;PMS5003;62336;-26.094;27.994;2024-01-15T07:52:04;28;24;
73973;PMS5003;62336;-26.094;27.994;2024-01-15T07:54:29;20;20;
73973;PMS5003;62336;-26.094;27.994;2024-01-15T07:56:55;25;22;
73973;PMS5003;62336;-26.094;27.994;2024-01-15T07:59:20;26;23;
73973;PMS5003;62336;-26.094;27.994;2024-01-15T08:01:46;21;21;
73973;PMS5003;62336;-26.094;27.994;2024-01-15T08:04:11;28;27;
73973;PMS5003;62336;-26.094;27.994;2024-01-15T08:06:37;30;29;
73973;PMS5003;62336;-26.094;27.994;2024-01-15T08:09:02;26;24;
73973;PMS5003;62336;-26.094;27.994;2024-01-15T08:11:28;22;21;
73973;PMS5003;62336;-26.094;27.994;2024-01-15T08:13:53;25;24;
73973;PMS5003;62336;-26.094;27.994;2024-01-15T08:16:24;27;27;
73973;PMS5003;62336;-26.094;27.994;2024-01-15T08:18:47;27;24;
73973;PMS5003;62336;-26.094;27.994;2024-01-15T08:21:09;22;21;
73973;PMS5003;62336;-26.094;27.994;2024-01-15T08:23:35;22;21;
73973;PMS5003;62336;-26.094;27.994;2024-01-15T08:26:01;26;25;
73973;PMS5003;62336;-26.094;27.994;2024-01-15T08:28:26;24;24;
73973;PMS5003;62336;-26.094;27.994;2024-01-15T08:30:52;24;23;
73973;PMS5003;62336;-26.094;27.994;2024-01-15T08:33:17;26;25;
73973;PMS5003;62336;-26.094;27.994;2024-01-15T08:35:42;28;28;
73973;PMS5003;62336;-26.094;27.994;2024-01-15T08:38:07;27;27;
73973;PMS5003;62336;-26.094;27.994;2024-01-15T08:40:33;27;25;
73973;PMS5003;62336;-26.094;27.994;2024-01-15T08:42:58;28;27;
73973;PMS5003;62336;-26.094;27.994;2024-01-15T08:45:23;29;25;
73973;PMS5003;62336;-26.094;27.994;2024-01-15T08:47:49;27;25;
73973;PMS5003;62336;-26.094;27.994;2024-01-15T08:50:14;27;26;
73973;PMS5003;62336;-26.094;27.994;2024-01-15T08:52:39;29;26;
73973;PMS5003;62336;-26.094;27.994;2024-01-15T08:55:05;27;26;
73973;PMS5003;62336;-26.094;27.994;2024-01-15T08:57:30;23;23;
73973;PMS5003;62336;-26.094;27.994;2024-01-15T08:59:56;21;21;
73973;PMS5003;62336;-26.094;27.994;2024-01-15T09:02:22;28;25;
73973;PMS5003;62336;-26.094;27.994;2024-01-15T09:04:47;19;19;
73973;PMS5003;62336;-26.094;27.994;2024-01-15T09:07:13;18;18;
73973;PMS5003;62336;-26.094;27.994;2024-01-15T09:09:39;23;22;
73973;PMS5003;62336;-26.094;27.994;2024-01-15T09:12:05;25;24;
73973;PMS5003;62336;-26.094;27.994;2024-01-15T09:14:30;23;22;
73973;PMS5003;62336;-26.094;27.994;2024-01-15T09:16:55;21;20;
73973;PMS5003;62336;-26.094;27.994;2024-01-15T09:19:21;23;23;
73973;PMS5003;62336;-26.094;27.994;2024-01-15T09:21:46;24;24;
73973;PMS5003;62336;-26.094;27.994;2024-01-15T09:24:12;25;23;
73973;PMS5003;62336;-26.094;27.994;2024-01-15T09:26:37;20;19;
73973;PMS5003;62336;-26.094;27.994;2024-01-15T09:29:03;20;20;
73973;PMS5003;62336;-26.094;27.994;2024-01-15T09:31:29;25;25;
73973;PMS5003;62336;-26.094;27.994;2024-01-15T09:33:54;25;23;
73973;PMS5003;62336;-26.094;27.994;2024-01-15T09:36:20;25;24;
73973;PMS5003;62336;-26.094;27.994;2024-01-15T09:38:45;18;17;
73973;PMS5003;62336;-26.094;27.994;2024-01-15T09:41:11;21;21;
73973;PMS5003;62336;-26.094;27.994;2024-01-15T09:43:36;22;21;
73973;PMS5003;62336;-26.094;27.994;2024-01-15T09:46:02;21;20;
73973;PMS5003;62336;-26.094;27.994;2024-01-15T09:48:27;25;24;
73973;PMS5003;62336;-26.094;27.994;2024-01-15T09:50:52;23;21;
73973;PMS5003;62336;-26.094;27.994;2024-01-15T09:53:18;21;21;
73973;PMS5003;62336;-26.094;27.994;2024-01-15T09:55:44;22;21;
73973;PMS5003;62336;-26.094;27.994;2024-01-15T09:58:09;20;20;
73973;PMS5003;62336;-26.094;27.994;2024-01-15T10:00:35;23;22;
73973;PMS5003;62336;-26.094;27.994;2024-01-15T10:03:00;18;18;
73973;PMS5003;62336;-26.094;27.994;2024-01-15T10:05:25;19;18;
73973;PMS5003;62336;-26.094;27.994;2024-01-15T10:07:53;20;20;
73973;PMS5003;62336;-26.094;27.994;2024-01-15T10:10:17;19;18;
73973;PMS5003;62336;-26.094;27.994;2024-01-15T10:12:43;19;17;
73973;PMS5003;62336;-26.094;27.994;2024-01-15T10:15:09;20;18;
73973;PMS5003;62336;-26.094;27.994;2024-01-15T10:17:35;20;18;
73973;PMS5003;62336;-26.094;27.994;2024-01-15T10:20:00;17;17;
73973;PMS5003;62336;-26.094;27.994;2024-01-15T10:22:26;22;20;
73973;PMS5003;62336;-26.094;27.994;2024-01-15T10:24:51;20;19;
73973;PMS5003;62336;-26.094;27.994;2024-01-15T10:27:16;19;17;
73973;PMS5003;62336;-26.094;27.994;2024-01-15T10:29:42;21;21;
73973;PMS5003;62336;-26.094;27.994;2024-01-15T10:32:08;20;20;
73973;PMS5003;62336;-26.094;27.994;2024-01-15T10:34:34;21;18;
73973;PMS5003;62336;-26.094;27.994;2024-01-15T10:37:00;20;20;
73973;PMS5003;62336;-26.094;27.994;2024-01-15T10:39:25;17;17;
73973;PMS5003;62336;-26.094;27.994;2024-01-15T10:41:50;18;16;
73973;PMS5003;62336;-26.094;27.994;2024-01-15T10:44:16;18;16;
73973;PMS5003;62336;-26.094;27.994;2024-01-15T10:46:41;17;16;
73973;PMS5003;62336;-26.094;27.994;2024-01-15T10:49:06;20;19;
73973;PMS5003;62336;-26.094;27.994;2024-01-15T10:51:32;19;19;
73973;PMS5003;62336;-26.094;27.994;2024-01-15T10:53:58;22;22;
73973;PMS5003;62336;-26.094;27.994;2024-01-15T10:56:24;20;19;
73973;PMS5003;62336;-26.094;27.994;2024-01-15T10:58:49;16;16;
73973;PMS5003;62336;-26.094;27.994;2024-01-15T11:01:14;17;16;
73973;PMS5003;62336;-26.094;27.994;2024-01-15T11:03:39;16;14;
73973;PMS5003;62336;-26.094;27.994;2024-01-15T11:06:08;17;16;
73973;PMS5003;62336;-26.094;27.994;2024-01-15T11:08:30;18;17;
73973;PMS5003;62336;-26.094;27.994;2024-01-15T11:10:55;24;23;
73973;PMS5003;62336;-26.094;27.994;2024-01-15T11:13:21;17;16;
73973;PMS5003;62336;-26.094;27.994;2024-01-15T11:18:12;17;17;
73973;PMS5003;62336;-26.094;27.994;2024-01-15T11:20:38;19;18;
73973;PMS5003;62336;-26.094;27.994;2024-01-15T11:23:03;15;14;
73973;PMS5003;62336;-26.094;27.994;2024-01-15T11:27:54;14;14;
73973;PMS5003;62336;-26.094;27.994;2024-01-15T11:30:19;20;20;
73973;PMS5003;62336;-26.094;27.994;2024-01-15T11:32:45;20;19;
73973;PMS5003;62336;-26.094;27.994;2024-01-15T11:35:10;20;19;
73973;PMS5003;62336;-26.094;27.994;2024-01-15T11:40:02;20;20;
73973;PMS5003;62336;-26.094;27.994;2024-01-15T11:42:27;19;18;
73973;PMS5003;62336;-26.094;27.994;2024-01-15T11:44:52;19;19;
73973;PMS5003;62336;-26.094;27.994;2024-01-15T11:47:33;18;18;
73973;PMS5003;62336;-26.094;27.994;2024-01-15T11:52:09;18;17;
73973;PMS5003;62336;-26.094;27.994;2024-01-15T11:54:34;16;16;
73973;PMS5003;62336;-26.094;27.994;2024-01-15T11:56:59;23;22;
73973;PMS5003;62336;-26.094;27.994;2024-01-15T11:59:24;22;20;
73973;PMS5003;62336;-26.094;27.994;2024-01-15T12:01:49;19;18;
73973;PMS5003;62336;-26.094;27.994;2024-01-15T12:04:15;22;21;
73973;PMS5003;62336;-26.094;27.994;2024-01-15T12:06:40;17;17;
73973;PMS5003;62336;-26.094;27.994;2024-01-15T12:09:06;19;19;
73973;PMS5003;62336;-26.094;27.994;2024-01-15T12:11:32;21;19;
73973;PMS5003;62336;-26.094;27.994;2024-01-15T12:13:56;18;18;
73973;PMS5003;62336;-26.094;27.994;2024-01-15T12:16:21;17;17;
73973;PMS5003;62336;-26.094;27.994;2024-01-15T12:18:47;15;14;
73973;PMS5003;62336;-26.094;27.994;2024-01-15T12:21:13;17;17;
73973;PMS5003;62336;-26.094;27.994;2024-01-15T12:23:39;22;21;
73973;PMS5003;62336;-26.094;27.994;2024-01-15T12:26:03;22;22;
73973;PMS5003;62336;-26.094;27.994;2024-01-15T12:28:28;20;19;
73973;PMS5003;62336;-26.094;27.994;2024-01-15T12:30:55;22;21;
73973;PMS5003;62336;-26.094;27.994;2024-01-15T12:33:20;18;18;
73973;PMS5003;62336;-26.094;27.994;2024-01-15T12:35:44;24;22;
73973;PMS5003;62336;-26.094;27.994;2024-01-15T12:38:10;22;21;
73973;PMS5003;62336;-26.094;27.994;2024-01-15T12:40:35;21;21;
73973;PMS5003;62336;-26.094;27.994;2024-01-15T12:43:01;18;18;
73973;PMS5003;62336;-26.094;27.994;2024-01-15T12:45:26;15;15;
73973;PMS5003;62336;-26.094;27.994;2024-01-15T12:47:51;18;18;
73973;PMS5003;62336;-26.094;27.994;2024-01-15T12:50:17;20;20;
73973;PMS5003;62336;-26.094;27.994;2024-01-15T12:52:42;19;19;
73973;PMS5003;62336;-26.094;27.994;2024-01-15T12:55:08;22;20;
73973;PMS5003;62336;-26.094;27.994;2024-01-15T12:57:34;21;20;
73973;PMS5003;62336;-26.094;27.994;2024-01-15T12:59:58;23;20;
73973;PMS5003;62336;-26.094;27.994;2024-01-15T13:02:24;24;24;
73973;PMS5003;62336;-26.094;27.994;2024-01-15T13:04:49;20;18;
73973;PMS5003;62336;-26.094;27.994;2024-01-15T13:07:14;21;20;
73973;PMS5003;62336;-26.094;27.994;2024-01-15T13:09:39;18;18;
73973;PMS5003;62336;-26.094;27.994;2024-01-15T13:12:04;26;23;
73973;PMS5003;62336;-26.094;27.994;2024-01-15T13:14:29;20;19;
73973;PMS5003;62336;-26.094;27.994;2024-01-15T13:16:55;20;18;
73973;PMS5003;62336;-26.094;27.994;2024-01-15T13:19:20;20;20;
73973;PMS5003;62336;-26.094;27.994;2024-01-15T13:21:45;21;19;
73973;PMS5003;62336;-26.094;27.994;2024-01-15T13:24:10;21;19;
73973;PMS5003;62336;-26.094;27.994;2024-01-15T13:26:36;18;17;
73973;PMS5003;62336;-26.094;27.994;2024-01-15T13:29:01;21;20;
73973;PMS5003;62336;-26.094;27.994;2024-01-15T13:31:27;20;18;
73973;PMS5003;62336;-26.094;27.994;2024-01-15T13:33:52;18;18;
73973;PMS5003;62336;-26.094;27.994;2024-01-15T13:36:18;17;17;
73973;PMS5003;62336;-26.094;27.994;2024-01-15T13:38:43;21;21;
73973;PMS5003;62336;-26.094;27.994;2024-01-15T13:41:09;22;22;
73973;PMS5003;62336;-26.094;27.994;2024-01-15T13:43:34;24;23;
73973;PMS5003;62336;-26.094;27.994;2024-01-15T13:45:59;20;18;
73973;PMS5003;62336;-26.094;27.994;2024-01-15T13:48:25;18;17;
73973;PMS5003;62336;-26.094;27.994;2024-01-15T13:50:50;16;16;
73973;PMS5003;62336;-26.094;27.994;2024-01-15T13:53:16;21;21;
73973;PMS5003;62336;-26.094;27.994;2024-01-15T13:55:42;18;18;
73973;PMS5003;62336;-26.094;27.994;2024-01-15T13:58:08;15;15;
73973;PMS5003;62336;-26.094;27.994;2024-01-15T14:00:34;18;17;
73973;PMS5003;62336;-26.094;27.994;2024-01-15T14:02:59;18;17;
73973;PMS5003;62336;-26.094;27.994;2024-01-15T14:05:24;21;20;
73973;PMS5003;62336;-26.094;27.994;2024-01-15T14:07:49;15;13;
73973;PMS5003;62336;-26.094;27.994;2024-01-15T14:10:14;14;14;
73973;PMS5003;62336;-26.094;27.994;2024-01-15T14:12:39;20;18;
73973;PMS5003;62336;-26.094;27.994;2024-01-15T14:15:06;20;19;
73973;PMS5003;62336;-26.094;27.994;2024-01-15T14:17:31;17;17;
73973;PMS5003;62336;-26.094;27.994;2024-01-15T14:19:56;14;14;
73973;PMS5003;62336;-26.094;27.994;2024-01-15T14:22:23;16;16;
73973;PMS5003;62336;-26.094;27.994;2024-01-15T14:24:47;16;16;
73973;PMS5003;62336;-26.094;27.994;2024-01-15T14:27:13;18;18;
73973;PMS5003;62336;-26.094;27.994;2024-01-15T14:29:38;19;18;
73973;PMS5003;62336;-26.094;27.994;2024-01-15T14:32:04;25;23;
73973;PMS5003;62336;-26.094;27.994;2024-01-15T14:34:29;20;20;
73973;PMS5003;62336;-26.094;27.994;2024-01-15T14:36:54;17;17;
73973;PMS5003;62336;-26.094;27.994;2024-01-15T14:39:19;21;21;
73973;PMS5003;62336;-26.094;27.994;2024-01-15T14:41:44;20;20;
73973;PMS5003;62336;-26.094;27.994;2024-01-15T14:44:09;21;20;
73973;PMS5003;62336;-26.094;27.994;2024-01-15T14:46:35;19;19;
73973;PMS5003;62336;-26.094;27.994;2024-01-15T14:49:01;22;20;
73973;PMS5003;62336;-26.094;27.994;2024-01-15T14:51:26;22;20;
73973;PMS5003;62336;-26.094;27.994;2024-01-15T14:53:51;23;22;
73973;PMS5003;62336;-26.094;27.994;2024-01-15T14:56:16;25;25;
73973;PMS5003;62336;-26.094;27.994;2024-01-15T14:58:41;21;21;
73973;PMS5003;62336;-26.094;27.994;2024-01-15T15:01:06;21;19;
73973;PMS5003;62336;-26.094;27.994;2024-01-15T15:03:32;24;24;
73973;PMS5003;62336;-26.094;27.994;2024-01-15T15:05:57;26;25;
73973;PMS5003;62336;-26.094;27.994;2024-01-15T15:08:23;31;30;
73973;PMS5003;62336;-26.094;27.994;2024-01-15T15:10:48;28;27;
73973;PMS5003;62336;-26.094;27.994;2024-01-15T15:13:14;35;33;
73973;PMS5003;62336;-26.094;27.994;2024-01-15T15:15:39;29;28;
73973;PMS5003;62336;-26.094;27.994;2024-01-15T15:18:05;28;28;
73973;PMS5003;62336;-26.094;27.994;2024-01-15T15:20:30;23;23;
73973;PMS5003;62336;-26.094;27.994;2024-01-15T15:22:56;27;26;
73973;PMS5003;62336;-26.094;27.994;2024-01-15T15:25:21;26;25;
73973;PMS5003;62336;-26.094;27.994;2024-01-15T15:27:46;29;29;
73973;PMS5003;62336;-26.094;27.994;2024-01-15T15:30:12;25;25;
73973;PMS5003;62336;-26.094;27.994;2024-01-15T15:32:37;25;24;
73973;PMS5003;62336;-26.094;27.994;2024-01-15T15:35:03;22;22;
73973;PMS5003;62336;-26.094;27.994;2024-01-15T15:37:28;31;31;
73973;PMS5003;62336;-26.094;27.994;2024-01-15T15:39:54;31;30;
73973;PMS5003;62336;-26.094;27.994;2024-01-15T15:42:19;25;24;
73973;PMS5003;62336;-26.094;27.994;2024-01-15T15:44:45;30;29;